Time;durP1;ratioP1;P1;durP2;ratioP2;P2;SDS_P1;SDS_P2;PMS_P1;PMS_P2;Temp;Humidity;BMP_temperature;BMP_pressure;BME280_temperature;BME280_humidity;BME280_pressure;Samples;Min_cycle;Max_cycle;Signal;HPM_P1;HPM_P2
2021/12/02 00:02:19;;;;;;;8.45;3.92;;;;;;;5.82;100.00;98755.31;5093851;28;20082;-74
2021/12/02 00:04:48;;;;;;;7.93;4.22;;;;;;;5.71;100.00;98761.28;5094100;28;20055;-74
2021/12/02 00:07:16;;;;;;;9.57;4.38;;;;;;;5.67;100.00;98759.78;5094077;28;20044;-74
2021/12/02 00:09:47;;;;;;;7.57;4.00;;;;;;;5.63;100.00;98750.34;5094390;28;20075;-74
2021/12/02 00:12:15;;;;;;;9.85;4.63;;;;;;;5.63;100.00;98753.00;5094223;28;20051;-74
2021/12/02 00:14:45;;;;;;;8.13;4.35;;;;;;;5.64;100.00;98752.03;5094101;28;20044;-74
2021/12/02 00:17:17;;;;;;;7.75;4.13;;;;;;;5.64;100.00;98753.84;5093913;28;20401;-75
2021/12/02 00:22:42;;;;;;;7.97;3.97;;;;;;;5.68;100.00;98750.03;5093845;28;20039;-74
2021/12/02 00:25:12;;;;;;;8.85;4.35;;;;;;;5.75;100.00;98751.34;5093761;28;20044;-75
2021/12/02 00:27:42;;;;;;;8.40;3.85;;;;;;;5.74;100.00;98755.78;5093887;28;20040;-74
2021/12/02 00:30:11;;;;;;;8.95;4.15;;;;;;;5.90;100.00;98749.53;5093689;28;20059;-75
2021/12/02 00:32:43;;;;;;;8.25;4.18;;;;;;;5.91;100.00;98754.75;5094001;28;20040;-74
2021/12/02 00:35:12;;;;;;;7.65;3.95;;;;;;;6.00;100.00;98755.94;5093333;28;20036;-74
2021/12/02 00:37:41;;;;;;;9.68;4.22;;;;;;;6.17;100.00;98752.19;5093920;28;20052;-73
2021/12/02 00:40:12;;;;;;;7.65;3.85;;;;;;;6.21;100.00;98753.69;5093482;28;20040;-74
2021/12/02 00:42:40;;;;;;;9.02;3.90;;;;;;;6.02;100.00;98749.59;5093874;28;20048;-74
2021/12/02 00:45:09;;;;;;;8.52;4.00;;;;;;;5.98;100.00;98741.94;5093229;28;20039;-78
2021/12/02 00:47:37;;;;;;;6.28;3.10;;;;;;;5.92;100.00;98747.66;5093669;28;20044;-73
2021/12/02 00:50:07;;;;;;;8.15;3.72;;;;;;;5.84;100.00;98748.13;5093656;28;20040;-73
2021/12/02 00:52:37;;;;;;;7.72;3.72;;;;;;;5.86;100.00;98742.72;5093559;28;20044;-74
2021/12/02 00:55:06;;;;;;;7.35;3.40;;;;;;;6.01;100.00;98734.69;5093571;28;20097;-73
2021/12/02 00:57:40;;;;;;;7.55;3.42;;;;;;;6.02;100.00;98744.31;5093295;28;20040;-73
2021/12/02 01:00:10;;;;;;;7.82;3.58;;;;;;;5.99;100.00;98743.66;5093533;28;20448;-76
2021/12/02 01:02:39;;;;;;;9.38;3.95;;;;;;;6.04;100.00;98749.50;5093684;28;20059;-73
2021/12/02 01:05:11;;;;;;;6.75;3.53;;;;;;;6.00;100.00;98742.72;5093089;28;20072;-73
2021/12/02 01:07:39;;;;;;;8.02;3.47;;;;;;;6.00;100.00;98745.38;5093554;28;20100;-73
2021/12/02 01:10:08;;;;;;;9.20;3.67;;;;;;;6.00;100.00;98750.66;5092781;28;20423;-73
2021/12/02 01:12:37;;;;;;;10.07;4.03;;;;;;;5.97;100.00;98750.84;5093244;28;20071;-74
2021/12/02 01:15:09;;;;;;;7.65;3.97;;;;;;;5.95;100.00;98755.38;5093286;28;20040;-73
2021/12/02 01:17:38;;;;;;;8.73;3.85;;;;;;;5.93;100.00;98754.66;5093150;28;20051;-74
2021/12/02 01:20:07;;;;;;;8.15;3.78;;;;;;;5.90;100.00;98765.41;5092976;28;20050;-74
2021/12/02 01:22:38;;;;;;;9.18;4.30;;;;;;;5.89;100.00;98764.56;5093139;28;20499;-73
2021/12/02 01:25:08;;;;;;;7.40;4.30;;;;;;;5.92;100.00;98763.53;5093309;28;20131;-73
2021/12/02 01:27:37;;;;;;;10.05;4.05;;;;;;;5.97;100.00;98756.97;5092956;28;20123;-73
2021/12/02 01:30:08;;;;;;;6.88;3.67;;;;;;;5.97;100.00;98748.19;5092866;28;20105;-73
2021/12/02 01:32:40;;;;;;;10.45;4.47;;;;;;;6.03;100.00;98750.44;5093396;28;20040;-73
2021/12/02 01:35:09;;;;;;;9.98;4.10;;;;;;;6.05;100.00;98747.69;5092914;28;20047;-72
2021/12/02 01:37:37;;;;;;;8.60;3.90;;;;;;;6.00;100.00;98738.28;5093215;28;20059;-73
2021/12/02 01:40:06;;;;;;;6.47;3.75;;;;;;;6.10;100.00;98746.47;5093055;28;20070;-73
2021/12/02 01:42:40;;;;;;;8.77;4.20;;;;;;;6.16;100.00;98746.03;5091632;28;20052;-73
2021/12/02 01:45:15;;;;;;;8.88;3.83;;;;;;;6.20;100.00;98741.41;5092809;28;20400;-73
2021/12/02 01:47:51;;;;;;;9.05;4.07;;;;;;;6.20;100.00;98736.13;5093094;28;20066;-73
2021/12/02 01:50:21;;;;;;;7.53;3.65;;;;;;;6.19;100.00;98737.06;5092342;28;20051;-74
2021/12/02 01:52:54;;;;;;;7.50;3.88;;;;;;;6.15;100.00;98739.03;5093105;28;20109;-74
2021/12/02 01:55:23;;;;;;;8.48;4.28;;;;;;;6.15;100.00;98733.75;5092697;28;20044;-74
2021/12/02 01:57:59;;;;;;;7.88;4.15;;;;;;;6.12;100.00;98733.97;5092889;28;20119;-74
2021/12/02 02:00:33;;;;;;;7.35;3.88;;;;;;;6.11;100.00;98742.84;5092353;28;20046;-74
2021/12/02 02:03:02;;;;;;;9.00;3.88;;;;;;;6.14;100.00;98737.34;5092714;28;20408;-74
2021/12/02 02:05:31;;;;;;;8.02;4.20;;;;;;;6.23;100.00;98733.25;5092416;28;20075;-74
2021/12/02 02:08:03;;;;;;;9.05;3.97;;;;;;;6.14;100.00;98737.34;5092463;28;20397;-74
2021/12/02 02:10:35;;;;;;;6.43;3.80;;;;;;;6.13;100.00;98734.81;5092276;28;20126;-74
2021/12/02 02:13:06;;;;;;;9.30;4.13;;;;;;;6.12;100.00;98733.13;5092528;28;20036;-74
2021/12/02 02:15:46;;;;;;;8.70;4.25;;;;;;;6.11;100.00;98734.91;5092525;28;20481;-74
2021/12/02 02:18:20;;;;;;;6.80;3.65;;;;;;;6.19;100.00;98735.25;5092535;28;20131;-78
2021/12/02 02:20:57;;;;;;;8.73;4.05;;;;;;;6.31;100.00;98734.44;5092608;28;20051;-74
2021/12/02 02:23:26;;;;;;;6.93;4.07;;;;;;;6.27;100.00;98727.66;5094235;28;20036;-75
2021/12/02 02:25:55;;;;;;;9.85;4.38;;;;;;;6.30;100.00;98718.66;5095932;28;20443;-74
2021/12/02 02:28:23;;;;;;;8.18;4.53;;;;;;;6.26;100.00;98725.94;5095972;28;20048;-74
2021/12/02 02:30:51;;;;;;;9.85;4.80;;;;;;;6.25;100.00;98729.53;5096220;28;20055;-74
2021/12/02 02:33:20;;;;;;;8.88;4.28;;;;;;;6.20;100.00;98726.38;5096067;28;20044;-75
2021/12/02 02:35:51;;;;;;;9.30;4.78;;;;;;;6.11;100.00;98721.69;5096543;28;20047;-75
2021/12/02 02:38:23;;;;;;;7.57;4.38;;;;;;;6.06;100.00;98715.81;5095915;28;20082;-74
2021/12/02 02:40:51;;;;;;;9.13;4.50;;;;;;;6.07;100.00;98709.59;5096006;28;20064;-75
2021/12/02 02:43:23;;;;;;;8.70;4.00;;;;;;;6.08;100.00;98713.94;5095465;28;20063;-75
2021/12/02 02:45:51;;;;;;;7.60;3.67;;;;;;;6.07;100.00;98714.88;5096145;28;20067;-75
2021/12/02 02:48:20;;;;;;;8.50;3.97;;;;;;;6.08;100.00;98719.25;5095543;28;20044;-76
2021/12/02 02:50:50;;;;;;;8.50;3.70;;;;;;;6.13;100.00;98719.78;5095659;28;20072;-75
2021/12/02 02:53:22;;;;;;;9.00;4.53;;;;;;;6.21;100.00;98721.91;5095493;28;20041;-76
2021/12/02 02:55:59;;;;;;;8.53;3.87;;;;;;;6.25;100.00;98712.81;5095901;28;20067;-75
2021/12/02 02:58:34;;;;;;;5.93;3.30;;;;;;;6.34;100.00;98721.94;5095449;28;20048;-75
2021/12/02 03:01:17;;;;;;;8.95;3.58;;;;;;;6.46;100.00;98721.09;5095772;28;20156;-75
2021/12/02 03:03:54;;;;;;;8.38;3.30;;;;;;;6.42;100.00;98715.19;5095975;28;20052;-75
2021/12/02 03:06:33;;;;;;;5.75;3.10;;;;;;;6.44;100.00;98712.41;5095167;28;20036;-75
2021/12/02 03:09:05;;;;;;;8.15;3.38;;;;;;;6.44;100.00;98712.41;5095369;28;20046;-75
2021/12/02 03:11:41;;;;;;;6.95;3.40;;;;;;;6.40;100.00;98711.78;5095281;28;20067;-75
2021/12/02 03:14:12;;;;;;;5.82;3.20;;;;;;;6.35;100.00;98713.03;5095335;28;20044;-74
2021/12/02 03:16:46;;;;;;;8.45;3.33;;;;;;;6.34;100.00;98712.19;5094025;28;20059;-72
2021/12/02 03:19:16;;;;;;;6.25;3.10;;;;;;;6.28;100.00;98708.19;5095511;28;20466;-72
2021/12/02 03:21:46;;;;;;;5.82;3.28;;;;;;;6.35;100.00;98707.75;5095679;28;20044;-72
2021/12/02 03:24:14;;;;;;;5.50;3.08;;;;;;;6.28;100.00;98702.88;5095358;28;20131;-72
2021/12/02 03:26:42;;;;;;;8.30;3.45;;;;;;;6.34;100.00;98700.75;5094771;28;20045;-72
2021/12/02 03:29:11;;;;;;;6.15;3.42;;;;;;;6.30;100.00;98708.91;5095178;28;20040;-73
2021/12/02 03:31:39;;;;;;;6.63;3.25;;;;;;;6.35;100.00;98713.88;5094704;28;20192;-73
2021/12/02 03:34:08;;;;;;;5.82;3.20;;;;;;;6.35;100.00;98720.97;5094746;28;20374;-73
2021/12/02 03:36:37;;;;;;;5.90;2.80;;;;;;;6.37;100.00;98717.31;5094675;28;20479;-72
2021/12/02 03:39:09;;;;;;;7.80;3.58;;;;;;;6.24;100.00;98714.59;5094935;28;20047;-74
2021/12/02 03:41:39;;;;;;;6.82;3.25;;;;;;;6.18;100.00;98715.03;5094657;28;20044;-74
2021/12/02 03:44:07;;;;;;;6.80;3.28;;;;;;;6.14;100.00;98710.88;5093556;28;20055;-74
2021/12/02 03:46:41;;;;;;;7.07;2.97;;;;;;;6.14;100.00;98716.16;5094236;28;20044;-75
2021/12/02 03:49:10;;;;;;;4.93;2.83;;;;;;;6.13;100.00;98714.47;5094887;28;20127;-74
2021/12/02 03:51:38;;;;;;;7.38;3.25;;;;;;;6.16;100.00;98714.25;5094418;28;20064;-74
2021/12/02 03:54:08;;;;;;;6.57;3.15;;;;;;;6.21;100.00;98717.47;5094303;28;20047;-74
2021/12/02 03:56:36;;;;;;;6.93;3.40;;;;;;;6.19;100.00;98703.50;5094297;28;20115;-74
2021/12/02 03:59:05;;;;;;;5.25;3.03;;;;;;;6.11;100.00;98703.16;5094474;28;20040;-74
2021/12/02 04:01:34;;;;;;;7.22;3.13;;;;;;;6.23;100.00;98691.72;5092988;28;20043;-74
2021/12/02 04:04:02;;;;;;;7.85;3.40;;;;;;;6.25;100.00;98703.06;5094725;28;20048;-74
2021/12/02 04:06:31;;;;;;;6.68;3.60;;;;;;;6.18;100.00;98707.09;5094130;28;20070;-74
2021/12/02 04:09:03;;;;;;;7.45;3.70;;;;;;;6.12;100.00;98711.94;5094262;28;20534;-73
2021/12/02 04:11:37;;;;;;;6.63;3.45;;;;;;;6.08;100.00;98715.72;5094061;28;20044;-73
2021/12/02 04:14:15;;;;;;;6.75;3.53;;;;;;;6.07;100.00;98714.88;5094167;28;20044;-73
2021/12/02 04:16:52;;;;;;;9.07;4.15;;;;;;;6.08;100.00;98713.06;5093966;28;20127;-73
2021/12/02 04:19:21;;;;;;;9.07;3.80;;;;;;;6.05;100.00;98715.94;5094309;28;20036;-73
2021/12/02 04:21:51;;;;;;;5.97;3.80;;;;;;;6.06;100.00;98717.63;5094222;28;20071;-73
2021/12/02 04:24:19;;;;;;;8.98;4.28;;;;;;;6.03;100.00;98713.41;5093023;28;20059;-72
2021/12/02 04:26:49;;;;;;;7.93;4.03;;;;;;;6.02;100.00;98717.84;5094032;28;20039;-72
2021/12/02 04:29:17;;;;;;;8.50;4.32;;;;;;;6.02;100.00;98711.69;5093969;28;20089;-72
2021/12/02 04:31:48;;;;;;;7.60;4.03;;;;;;;6.10;100.00;98725.28;5093206;28;20055;-72
2021/12/02 04:34:17;;;;;;;8.85;3.95;;;;;;;6.24;100.00;98722.56;5093826;28;20043;-72
2021/12/02 04:36:45;;;;;;;9.07;4.50;;;;;;;6.19;100.00;98724.69;5093534;28;20044;-73
2021/12/02 04:39:14;;;;;;;10.52;3.92;;;;;;;6.22;100.00;98719.16;5093775;28;20044;-72
2021/12/02 04:41:43;;;;;;;7.30;3.97;;;;;;;6.19;100.00;98719.38;5093452;28;20048;-76
2021/12/02 04:44:13;;;;;;;7.45;4.10;;;;;;;6.15;100.00;98712.56;5093697;28;20044;-76
2021/12/02 04:46:42;;;;;;;8.25;3.88;;;;;;;6.14;100.00;98723.28;5092443;28;20050;-74
2021/12/02 04:49:13;;;;;;;7.60;4.03;;;;;;;6.15;100.00;98719.66;5093741;28;20044;-74
2021/12/02 04:51:41;;;;;;;7.88;3.80;;;;;;;6.13;100.00;98730.38;5093321;28;20044;-75
2021/12/02 04:54:11;;;;;;;10.10;4.38;;;;;;;6.06;100.00;98718.47;5093658;28;20047;-74
2021/12/02 04:56:42;;;;;;;10.45;4.60;;;;;;;6.03;100.00;98700.16;5093265;28;20071;-74
2021/12/02 04:59:10;;;;;;;11.10;4.47;;;;;;;6.01;100.00;98704.72;5092710;28;20056;-74
2021/12/02 05:01:40;;;;;;;10.55;4.82;;;;;;;6.05;100.00;98700.91;5092743;28;20059;-73
2021/12/02 05:04:08;;;;;;;10.40;4.65;;;;;;;6.01;100.00;98699.41;5093671;28;20097;-73
2021/12/02 05:06:38;;;;;;;9.32;4.68;;;;;;;6.05;100.00;98700.06;5093268;28;20055;-73
2021/12/02 05:09:06;;;;;;;9.93;5.00;;;;;;;6.08;100.00;98695.41;5093386;28;20101;-73
2021/12/02 05:11:37;;;;;;;11.00;4.72;;;;;;;6.20;100.00;98699.03;5092741;28;20098;-75
2021/12/02 05:14:08;;;;;;;10.85;5.13;;;;;;;6.23;100.00;98694.38;5093575;28;20051;-73
2021/12/02 05:16:36;;;;;;;10.15;5.00;;;;;;;6.14;100.00;98707.38;5092773;28;20040;-74
2021/12/02 05:19:11;;;;;;;11.38;5.18;;;;;;;6.06;100.00;98707.88;5093304;28;20435;-73
2021/12/02 05:21:39;;;;;;;8.98;4.90;;;;;;;6.07;100.00;98711.38;5093078;28;20071;-74
2021/12/02 05:24:07;;;;;;;8.05;4.82;;;;;;;6.03;100.00;98719.53;5093153;28;20036;-73
2021/12/02 05:26:36;;;;;;;10.93;5.10;;;;;;;5.96;100.00;98712.09;5092418;28;20489;-70
2021/12/02 05:29:04;;;;;;;12.38;5.45;;;;;;;5.95;100.00;98720.97;5093118;28;20469;-72
2021/12/02 05:31:32;;;;;;;9.65;5.18;;;;;;;5.93;100.00;98718.44;5092718;28;20488;-70
2021/12/02 05:34:00;;;;;;;8.57;5.28;;;;;;;5.92;100.00;98713.25;5092812;28;20044;-71
2021/12/02 05:36:32;;;;;;;10.05;5.10;;;;;;;5.94;100.00;98708.69;5092752;28;20044;-72
2021/12/02 05:39:00;;;;;;;10.68;5.28;;;;;;;5.89;100.00;98716.94;5093040;28;20065;-72
2021/12/02 05:41:31;;;;;;;12.35;5.20;;;;;;;5.93;100.00;98715.78;5092426;28;20446;-78
2021/12/02 05:44:00;;;;;;;11.82;5.68;;;;;;;5.91;100.00;98706.25;5092884;28;20040;-74
2021/12/02 05:46:28;;;;;;;10.55;5.13;;;;;;;5.97;100.00;98713.78;5092967;28;20036;-74
2021/12/02 05:48:56;;;;;;;10.52;4.97;;;;;;;5.96;100.00;98709.44;5092950;28;20097;-71
2021/12/02 05:51:24;;;;;;;8.80;5.22;;;;;;;5.92;100.00;98700.03;5092576;28;20044;-71
2021/12/02 05:53:54;;;;;;;11.30;5.45;;;;;;;5.92;100.00;98708.81;5092638;28;20046;-75
2021/12/02 05:56:22;;;;;;;9.77;5.35;;;;;;;6.01;100.00;98705.56;5092711;28;20073;-72
2021/12/02 05:58:50;;;;;;;11.02;5.22;;;;;;;6.01;100.00;98704.72;5096393;28;20044;-72
2021/12/02 06:01:19;;;;;;;15.68;5.75;;;;;;;6.02;100.00;98694.03;5096544;28;20055;-73
2021/12/02 06:03:47;;;;;;;12.52;6.03;;;;;;;5.99;100.00;98696.03;5095908;28;20056;-73
2021/12/02 06:06:17;;;;;;;11.60;6.30;;;;;;;6.10;100.00;98703.25;5096482;28;20044;-73
2021/12/02 06:08:46;;;;;;;11.23;5.90;;;;;;;6.10;100.00;98704.09;5096074;28;20489;-73
2021/12/02 06:11:15;;;;;;;16.27;5.50;;;;;;;6.00;100.00;98717.09;5096401;28;20377;-73
2021/12/02 06:13:45;;;;;;;13.90;6.22;;;;;;;6.01;100.00;98710.00;5095860;28;20044;-73
2021/12/02 06:16:15;;;;;;;12.75;5.88;;;;;;;6.03;100.00;98721.34;5096593;28;20043;-74
2021/12/02 06:18:43;;;;;;;10.02;5.72;;;;;;;5.97;100.00;98714.63;5095760;28;20040;-74
2021/12/02 06:21:12;;;;;;;12.43;6.47;;;;;;;6.02;100.00;98719.63;5096031;28;20040;-71
2021/12/02 06:23:41;;;;;;;18.13;6.90;;;;;;;6.00;100.00;98717.09;5095638;28;20124;-70
2021/12/02 06:26:10;;;;;;;12.85;6.45;;;;;;;5.99;100.00;98707.47;5096159;28;20052;-71
2021/12/02 06:28:39;;;;;;;13.57;7.00;;;;;;;5.90;100.00;98708.06;5095774;28;20032;-72
2021/12/02 06:31:08;;;;;;;12.38;6.75;;;;;;;5.89;100.00;98708.13;5096192;28;20044;-74
2021/12/02 06:33:37;;;;;;;16.75;7.80;;;;;;;5.86;100.00;98706.53;5095952;28;20052;-73
2021/12/02 06:36:05;;;;;;;13.73;7.35;;;;;;;5.85;100.00;98709.28;5095804;28;20070;-72
2021/12/02 06:38:45;;;;;;;14.80;7.55;;;;;;;5.97;100.00;98711.13;5094646;28;20067;-72
2021/12/02 06:41:13;;;;;;;16.75;7.75;;;;;;;5.91;100.00;98706.25;5096028;28;20044;-72
2021/12/02 06:43:43;;;;;;;15.65;7.40;;;;;;;5.84;100.00;98713.72;5095219;28;20040;-73
2021/12/02 06:46:11;;;;;;;13.65;7.65;;;;;;;5.89;100.00;98708.13;5094241;28;20142;-73
2021/12/02 06:48:40;;;;;;;13.73;7.68;;;;;;;5.89;100.00;98700.19;5095165;28;20040;-73
2021/12/02 06:51:10;;;;;;;15.55;8.20;;;;;;;5.95;100.00;98710.41;5095559;28;20040;-72
2021/12/02 06:53:45;;;;;;;16.88;7.95;;;;;;;6.05;100.00;98708.84;5095421;28;20044;-73
2021/12/02 06:56:13;;;;;;;15.18;7.85;;;;;;;6.00;100.00;98713.59;5093986;28;20091;-72
2021/12/02 06:58:42;;;;;;;14.30;7.85;;;;;;;5.95;100.00;98716.53;5095310;28;20393;-75
2021/12/02 07:01:11;;;;;;;16.17;8.15;;;;;;;5.97;100.00;98719.94;5095557;28;20036;-71
2021/12/02 07:03:39;;;;;;;15.73;8.55;;;;;;;6.13;100.00;98722.41;5095270;28;20056;-73
2021/12/02 07:06:08;;;;;;;14.50;8.07;;;;;;;6.09;100.00;98733.34;5095622;28;20454;-75
2021/12/02 07:08:36;;;;;;;18.20;9.07;;;;;;;6.13;100.00;98737.47;5094041;28;20044;-76
2021/12/02 07:11:07;;;;;;;15.52;7.88;;;;;;;6.12;100.00;98741.06;5095091;28;20127;-76
2021/12/02 07:13:37;;;;;;;15.13;7.90;;;;;;;6.06;100.00;98746.75;5094011;28;20055;-80
2021/12/02 07:16:07;;;;;;;13.60;7.78;;;;;;;6.06;100.00;98755.53;5095001;28;20044;-74
2021/12/02 07:18:38;;;;;;;15.82;8.38;;;;;;;6.06;100.00;98760.81;5094767;28;20044;-71
2021/12/02 07:21:06;;;;;;;13.93;7.45;;;;;;;6.03;100.00;98759.25;5095143;28;20378;-70
2021/12/02 07:23:34;;;;;;;12.82;7.22;;;;;;;6.01;100.00;98762.94;5095052;28;20388;-72
2021/12/02 07:26:03;;;;;;;18.35;7.55;;;;;;;6.02;100.00;98762.00;5095084;28;20036;-71
2021/12/02 07:28:35;;;;;;;17.85;8.65;;;;;;;6.01;100.00;98757.66;5095113;28;20046;-71
2021/12/02 07:31:05;;;;;;;16.13;8.73;;;;;;;5.99;100.00;98755.09;5094841;28;20047;-71
2021/12/02 07:33:38;;;;;;;15.75;8.23;;;;;;;6.05;100.00;98748.53;5095154;28;20119;-72
2021/12/02 07:36:07;;;;;;;17.63;7.65;;;;;;;6.12;100.00;98757.78;5095138;28;20480;-72
2021/12/02 07:38:37;;;;;;;14.32;7.35;;;;;;;6.14;100.00;98747.94;5094945;28;20109;-73
2021/12/02 07:41:06;;;;;;;13.82;7.22;;;;;;;6.02;100.00;98746.09;5094997;28;20535;-73
2021/12/02 07:43:36;;;;;;;19.42;7.47;;;;;;;6.00;100.00;98751.50;5094803;28;20040;-72
2021/12/02 07:46:06;;;;;;;17.10;7.40;;;;;;;5.96;100.00;98749.16;5094404;28;20046;-72
2021/12/02 07:48:37;;;;;;;18.05;7.05;;;;;;;5.92;100.00;98759.09;5093486;28;20043;-70
2021/12/02 07:51:09;;;;;;;19.00;7.28;;;;;;;5.98;100.00;98764.00;5089481;28;20036;-71
2021/12/02 07:53:41;;;;;;;19.93;9.33;;;;;;;5.98;100.00;98757.81;5094463;28;20040;-70
2021/12/02 07:56:12;;;;;;;18.77;7.07;;;;;;;5.93;100.00;98767.88;5094096;28;20040;-73
2021/12/02 07:58:43;;;;;;;15.63;7.20;;;;;;;5.91;100.00;98767.97;5093327;28;20075;-75
2021/12/02 08:01:12;;;;;;;14.93;6.70;;;;;;;5.89;100.00;98769.84;5094560;28;20052;-73
2021/12/02 08:03:44;;;;;;;13.65;6.90;;;;;;;5.91;100.00;98772.44;5094109;28;20054;-75
2021/12/02 08:06:14;;;;;;;16.98;7.32;;;;;;;5.90;100.00;98770.69;5094400;28;20477;-74
2021/12/02 08:08:43;;;;;;;17.88;7.70;;;;;;;5.98;100.00;98765.75;5093940;28;20036;-74
2021/12/02 08:11:12;;;;;;;16.38;8.20;;;;;;;6.07;100.00;98767.81;5094298;28;20036;-72
2021/12/02 08:13:41;;;;;;;16.70;7.43;;;;;;;6.05;100.00;98774.16;5093796;28;20040;-77
2021/12/02 08:16:11;;;;;;;16.05;7.30;;;;;;;6.01;100.00;98769.09;5094328;28;20044;-71
2021/12/02 08:18:39;;;;;;;14.73;7.35;;;;;;;6.00;100.00;98771.84;5093650;28;20451;-72
2021/12/02 08:21:09;;;;;;;17.00;8.23;;;;;;;5.97;100.00;98783.44;5092905;28;20044;-73
2021/12/02 08:23:37;;;;;;;16.23;7.55;;;;;;;6.04;100.00;98773.31;5093907;28;20056;-73
2021/12/02 08:26:05;;;;;;;15.95;7.90;;;;;;;6.01;100.00;98776.19;5093729;28;20454;-73
2021/12/02 08:28:34;;;;;;;16.75;8.70;;;;;;;6.03;100.00;98784.84;5092416;28;20047;-71
2021/12/02 08:31:02;;;;;;;16.77;9.05;;;;;;;6.00;100.00;98782.44;5093512;28;20044;-73
2021/12/02 08:33:31;;;;;;;16.40;8.82;;;;;;;6.00;100.00;98785.06;5093959;28;20127;-71
2021/12/02 08:35:59;;;;;;;16.92;9.45;;;;;;;6.02;100.00;98791.94;5093045;28;20044;-70
2021/12/02 08:38:33;;;;;;;20.27;9.70;;;;;;;6.11;100.00;98795.81;5093646;28;20048;-71
2021/12/02 08:41:02;;;;;;;15.82;9.32;;;;;;;6.11;100.00;98798.44;5093388;28;20047;-70
2021/12/02 08:43:30;;;;;;;19.67;9.82;;;;;;;6.08;100.00;98801.31;5093739;28;20040;-71
2021/12/02 08:45:59;;;;;;;19.10;9.70;;;;;;;6.09;100.00;98808.31;5092964;28;20109;-71
2021/12/02 08:48:27;;;;;;;17.73;9.70;;;;;;;6.06;100.00;98805.81;5093271;28;20051;-72
2021/12/02 08:50:55;;;;;;;20.13;10.13;;;;;;;6.09;100.00;98805.66;5092822;28;20036;-73
2021/12/02 08:53:24;;;;;;;18.38;9.85;;;;;;;6.12;100.00;98802.78;5093437;28;20050;-72
2021/12/02 08:55:53;;;;;;;18.00;9.95;;;;;;;6.10;100.00;98810.00;5093004;28;20040;-70
2021/12/02 08:58:21;;;;;;;21.98;10.38;;;;;;;6.13;100.00;98799.19;5093438;28;20047;-69
2021/12/02 09:00:50;;;;;;;21.77;10.52;;;;;;;6.13;100.00;98804.50;5092917;28;20050;-70
2021/12/02 09:03:18;;;;;;;23.15;10.75;;;;;;;6.12;100.00;98801.94;5092945;28;20048;-70
2021/12/02 09:05:47;;;;;;;17.92;9.52;;;;;;;6.20;100.00;98800.50;5092615;28;20052;-69
2021/12/02 09:08:19;;;;;;;21.33;10.07;;;;;;;6.17;100.00;98802.47;5092288;28;20040;-70
2021/12/02 09:10:48;;;;;;;19.55;10.93;;;;;;;6.17;100.00;98795.38;5093015;28;20052;-71
2021/12/02 09:13:18;;;;;;;21.33;10.73;;;;;;;6.17;100.00;98790.09;5093407;28;20042;-70
2021/12/02 09:15:49;;;;;;;21.65;10.38;;;;;;;6.23;100.00;98791.50;5093231;28;20062;-71
2021/12/02 09:18:17;;;;;;;21.70;9.70;;;;;;;6.29;100.00;98788.47;5093160;28;20501;-70
2021/12/02 09:20:46;;;;;;;19.38;9.88;;;;;;;6.29;100.00;98784.00;5093041;28;20097;-71
2021/12/02 09:23:15;;;;;;;26.80;11.10;;;;;;;6.31;100.00;98776.81;5092946;28;20044;-70
2021/12/02 09:25:43;;;;;;;22.05;10.75;;;;;;;6.36;100.00;98778.28;5092896;28;20093;-70
2021/12/02 09:28:15;;;;;;;17.35;10.00;;;;;;;6.40;100.00;98770.06;5093340;28;20044;-71
2021/12/02 09:30:47;;;;;;;17.83;8.93;;;;;;;6.48;100.00;98765.09;5092124;28;20052;-70
2021/12/02 09:33:16;;;;;;;16.35;9.05;;;;;;;6.46;100.00;98760.84;5096882;28;20050;-70
2021/12/02 09:35:44;;;;;;;14.43;8.30;;;;;;;6.49;100.00;98760.66;5097075;28;20051;-70
2021/12/02 09:38:14;;;;;;;19.20;10.38;;;;;;;6.50;100.00;98743.81;5097641;28;20071;-70
2021/12/02 09:40:44;;;;;;;17.02;9.52;;;;;;;6.53;100.00;98743.59;5097247;28;20040;-70
2021/12/02 09:43:14;;;;;;;14.80;7.50;;;;;;;6.57;100.00;98745.09;5097303;28;20101;-70
2021/12/02 09:45:44;;;;;;;13.85;8.13;;;;;;;6.57;100.00;98740.66;5097114;28;20036;-70
2021/12/02 09:48:13;;;;;;;16.83;7.55;;;;;;;6.65;100.00;98742.75;5096918;28;20048;-71
2021/12/02 09:50:54;;;;;;;15.45;8.25;;;;;;;6.66;100.00;98741.81;5096696;28;20083;-71
2021/12/02 09:53:32;;;;;;;20.05;9.15;;;;;;;6.73;100.00;98740.44;5097102;28;20048;-71
2021/12/02 09:56:09;;;;;;;18.47;9.37;;;;;;;6.84;100.00;98735.25;5096831;28;20041;-70
2021/12/02 09:58:37;;;;;;;17.50;9.27;;;;;;;7.12;100.00;98741.28;5097049;28;20047;-70
2021/12/02 10:01:08;;;;;;;19.67;9.70;;;;;;;7.04;100.00;98733.84;5096662;28;20047;-71
2021/12/02 10:03:40;;;;;;;16.80;9.07;;;;;;;7.00;100.00;98726.22;5096709;28;20052;-70
2021/12/02 10:06:14;;;;;;;16.48;9.80;;;;;;;7.02;100.00;98727.81;5096681;28;20054;-71
2021/12/02 10:08:51;;;;;;;16.67;9.50;;;;;;;6.91;100.00;98726.88;5096856;28;20174;-70
2021/12/02 10:11:31;;;;;;;15.48;9.52;;;;;;;6.85;100.00;98734.31;5096380;28;20508;-70
2021/12/02 10:14:12;;;;;;;20.60;11.07;;;;;;;6.80;100.00;98725.81;5096496;28;20052;-70
2021/12/02 10:16:42;;;;;;;18.60;9.75;;;;;;;7.02;100.00;98724.31;5096698;28;20044;-70
2021/12/02 10:19:12;;;;;;;18.77;9.45;;;;;;;7.20;100.00;98719.53;5096043;28;20051;-70
2021/12/02 10:21:44;;;;;;;16.85;9.23;;;;;;;7.16;100.00;98711.81;5096257;28;20131;-71
2021/12/02 10:24:15;;;;;;;19.73;10.32;;;;;;;7.17;100.00;98702.03;5095912;28;20451;-71
2021/12/02 10:26:49;;;;;;;21.40;10.77;;;;;;;7.13;100.00;98711.16;5096481;28;20048;-71
2021/12/02 10:29:39;;;;;;;22.52;12.18;;;;;;;6.97;100.00;98710.56;5096505;28;20043;-71
2021/12/02 10:32:11;;;;;;;18.05;11.35;;;;;;;7.08;100.00;98702.69;5096172;28;20427;-71
2021/12/02 10:34:53;;;;;;;22.45;11.20;;;;;;;7.11;100.00;98707.78;5095414;28;20405;-71
2021/12/02 10:37:25;;;;;;;16.75;10.18;;;;;;;7.01;100.00;98699.63;5096514;28;20406;-71
2021/12/02 10:39:58;;;;;;;19.73;10.55;;;;;;;7.11;100.00;98694.50;5095745;28;20094;-71
2021/12/02 10:42:28;;;;;;;18.30;10.43;;;;;;;7.02;100.00;98697.81;5096314;28;20401;-70
2021/12/02 10:45:00;;;;;;;20.50;11.13;;;;;;;6.91;100.00;98695.91;5094714;28;20106;-69
2021/12/02 10:47:30;;;;;;;23.02;12.63;;;;;;;6.81;100.00;98694.84;5095013;28;20060;-70
2021/12/02 10:50:01;;;;;;;23.35;13.10;;;;;;;6.94;100.00;98692.19;5095715;28;20044;-71
2021/12/02 10:52:31;;;;;;;18.60;12.10;;;;;;;6.92;100.00;98697.59;5095632;28;20044;-71
2021/12/02 10:55:03;;;;;;;21.23;12.10;;;;;;;7.03;100.00;98694.19;5095815;28;20514;-69
2021/12/02 10:57:34;;;;;;;23.25;12.55;;;;;;;6.94;100.00;98685.09;5095850;28;20042;-70
2021/12/02 11:00:04;;;;;;;21.63;11.18;;;;;;;6.78;100.00;98687.97;5095635;28;20043;-71
2021/12/02 11:02:35;;;;;;;21.40;12.40;;;;;;;6.97;100.00;98678.75;5095941;28;20342;-70
2021/12/02 11:05:07;;;;;;;21.63;12.60;;;;;;;6.69;100.00;98675.38;5095155;28;20362;-70
2021/12/02 11:07:39;;;;;;;20.85;11.95;;;;;;;6.79;100.00;98676.41;5095546;28;20044;-70
2021/12/02 11:10:10;;;;;;;20.15;11.70;;;;;;;6.75;100.00;98664.31;5095369;28;20055;-70
2021/12/02 11:12:40;;;;;;;15.82;10.57;;;;;;;6.78;100.00;98664.13;5095532;28;20040;-70
2021/12/02 11:15:14;;;;;;;22.15;11.93;;;;;;;6.71;100.00;98664.66;5094170;28;20405;-70
2021/12/02 11:17:46;;;;;;;17.05;10.95;;;;;;;6.62;100.00;98662.63;5095162;28;20040;-71
2021/12/02 11:20:22;;;;;;;18.40;11.80;;;;;;;6.78;100.00;98650.03;5094933;28;20044;-70
2021/12/02 11:22:55;;;;;;;17.60;10.20;;;;;;;6.70;100.00;98645.25;5095513;28;20047;-70
2021/12/02 11:25:27;;;;;;;16.63;10.43;;;;;;;6.82;100.00;98655.00;5095360;28;20044;-70
2021/12/02 11:27:56;;;;;;;17.10;8.88;;;;;;;6.81;100.00;98653.31;5095019;28;20388;-71
2021/12/02 11:30:26;;;;;;;17.27;9.95;;;;;;;6.79;100.00;98655.22;5095039;28;20036;-70
2021/12/02 11:32:59;;;;;;;20.27;10.73;;;;;;;6.87;100.00;98654.69;5094828;28;20109;-71
2021/12/02 11:35:32;;;;;;;21.60;10.43;;;;;;;6.78;100.00;98650.88;5094581;28;20044;-70
2021/12/02 11:38:04;;;;;;;15.52;10.57;;;;;;;6.71;100.00;98646.94;5094638;28;20039;-71
2021/12/02 11:40:35;;;;;;;19.48;11.40;;;;;;;6.64;100.00;98644.81;5095025;28;20071;-70
2021/12/02 11:43:05;;;;;;;19.05;11.45;;;;;;;6.77;100.00;98645.69;5094799;28;20047;-70
2021/12/02 11:45:42;;;;;;;22.30;12.02;;;;;;;6.72;100.00;98642.50;5094923;28;20439;-70